Time;durP1;ratioP1;P1;durP2;ratioP2;P2;SDS_P1;SDS_P2;PMS_P1;PMS_P2;Temp;Humidity;BMP_temperature;BMP_pressure;BME280_temperature;BME280_humidity;BME280_pressure;Samples;Min_cycle;Max_cycle;Signal;HPM_P1;HPM_P2
2023/11/28 00:02:16;;;;;;;;;2.00;2.00;;;;;11.29;52.19;100858.56;146612;565;46016;-68
2023/11/28 00:05:16;;;;;;;;;4.00;4.00;;;;;11.32;52.32;100864.78;146614;735;47017;-70
2023/11/28 00:08:12;;;;;;;;;4.50;4.50;;;;;11.37;51.94;100869.31;146609;613;47012;-73
2023/11/28 00:11:16;;;;;;;;;1.00;0.75;;;;;11.40;52.18;100873.00;146616;590;46064;-75
2023/11/28 00:14:11;;;;;;;;;2.50;2.50;;;;;11.40;52.61;100865.19;146612;614;46013;-75
2023/11/28 00:17:22;;;;;;;;;8.50;3.75;;;;;9.70;52.60;100556.63;146616;646;46014;-71
2023/11/28 00:20:20;;;;;;;;;3.25;3.00;;;;;11.46;53.79;100849.00;146612;608;46016;-75
2023/11/28 00:23:35;;;;;;;;;2.50;2.50;;;;;11.44;54.33;100841.16;146614;606;46018;-72
2023/11/28 00:26:37;;;;;;;;;2.00;2.00;;;;;11.48;54.57;100839.59;146610;579;46016;-73
2023/11/28 00:29:34;;;;;;;;;2.75;2.75;;;;;11.49;55.29;100842.25;146614;586;46021;-72
2023/11/28 00:32:39;;;;;;;;;4.00;2.50;;;;;11.54;54.43;100835.59;146612;596;46016;-72
2023/11/28 00:35:35;;;;;;;;;5.25;5.00;;;;;11.55;55.30;100821.78;146615;655;47010;-73
2023/11/28 00:38:35;;;;;;;;;5.50;5.00;;;;;11.57;54.33;100814.97;146611;595;46012;-74
2023/11/28 00:41:32;;;;;;;;;3.25;2.75;;;;;11.57;54.26;100817.56;146616;563;46010;-72
2023/11/28 00:44:43;;;;;;;;;6.25;5.75;;;;;11.59;54.37;100801.16;146612;601;46016;-73
2023/11/28 00:47:51;;;;;;;;;2.00;2.00;;;;;11.59;54.09;100796.87;146613;577;46010;-73
2023/11/28 00:50:47;;;;;;;;;4.00;4.00;;;;;11.59;53.68;100811.53;146613;566;46016;-72
2023/11/28 00:53:52;;;;;;;;;3.50;3.50;;;;;11.60;53.44;100808.16;146613;563;46010;-72
2023/11/28 00:56:58;;;;;;;;;5.00;4.25;;;;;11.59;53.45;100794.28;146612;614;46012;-70
2023/11/28 01:00:02;;;;;;;;;4.00;3.75;;;;;11.62;52.90;100793.50;146615;574;46010;-70
2023/11/28 01:03:01;;;;;;;;;3.25;2.75;;;;;11.61;53.70;100782.25;146614;569;46016;-70
2023/11/28 01:05:53;;;;;;;;;4.00;3.25;;;;;11.59;54.91;100767.41;146616;596;46021;-69
2023/11/28 01:08:58;;;;;;;;;1.00;1.00;;;;;11.64;54.32;100771.12;146609;695;46917;-69
2023/11/28 01:11:57;;;;;;;;;1.00;1.00;;;;;11.65;53.31;100768.59;146621;609;46020;-73
2023/11/28 01:14:52;;;;;;;;;5.00;4.00;;;;;11.69;53.78;100772.22;146612;697;46016;-73
2023/11/28 01:17:50;;;;;;;;;1.50;1.50;;;;;11.71;53.24;100771.50;146612;633;46020;-74
2023/11/28 01:21:10;;;;;;;;;5.00;4.00;;;;;10.17;52.22;100482.13;146608;604;46013;-74
2023/11/28 01:24:38;;;;;;;;;10.50;6.75;;;;;11.77;52.23;100750.09;146615;633;46020;-75
2023/11/28 01:27:56;;;;;;;;;3.00;3.00;;;;;11.78;53.00;100752.78;146610;623;47014;-73
2023/11/28 01:31:04;;;;;;;;;5.00;3.25;;;;;10.25;52.37;100466.94;146613;564;47010;-73
2023/11/28 01:34:25;;;;;;;;;4.75;2.25;;;;;11.85;52.37;100728.00;146617;629;46017;-73
2023/11/28 01:37:26;;;;;;;;;2.75;2.75;;;;;11.88;52.36;100732.44;146613;580;46010;-75
2023/11/28 01:40:34;;;;;;;;;4.25;2.75;;;;;11.90;52.46;100721.31;146610;577;46016;-71
2023/11/28 01:43:50;;;;;;;;;2.75;2.00;;;;;10.40;52.39;100459.94;146613;612;46010;-70
2023/11/28 01:46:48;;;;;;;;;2.25;2.25;;;;;11.93;53.48;100715.34;146612;579;46915;-71
2023/11/28 01:49:43;;;;;;;;;4.25;3.25;;;;;11.92;53.30;100714.44;146613;578;46010;-71
2023/11/28 01:52:49;;;;;;;;;2.00;2.00;;;;;11.08;52.79;100560.81;146615;722;47012;-73
2023/11/28 01:55:48;;;;;;;;;3.00;2.50;;;;;11.94;53.47;100691.16;146610;615;46020;-71
2023/11/28 01:59:04;;;;;;;;;3.00;3.00;;;;;11.96;53.71;100702.47;146612;670;46029;-78
2023/11/28 02:02:01;;;;;;;;;5.00;3.00;;;;;11.98;53.33;100691.34;146616;628;46010;-69
2023/11/28 02:05:31;;;;;;;;;7.25;6.75;;;;;10.38;52.70;100417.53;146614;613;47013;-74
2023/11/28 02:08:27;;;;;;;;;2.75;2.75;;;;;11.94;53.22;100680.75;146614;565;47010;-74
2023/11/28 02:11:39;;;;;;;;;3.25;2.50;;;;;10.49;53.39;100429.25;146609;605;47010;-72
2023/11/28 02:14:55;;;;;;;;;6.50;4.25;;;;;11.90;53.38;100695.31;146612;609;46036;-72
2023/11/28 02:17:55;;;;;;;;;5.50;4.00;;;;;11.87;54.33;100674.41;146609;599;46016;-73
2023/11/28 02:20:49;;;;;;;;;5.00;4.75;;;;;11.83;54.15;100674.16;146616;643;46020;-71
2023/11/28 02:23:57;;;;;;;;;3.25;2.00;;;;;11.83;54.52;100669.84;146610;619;47012;-71
2023/11/28 02:26:59;;;;;;;;;0.25;0.00;;;;;11.82;53.38;100665.47;146616;641;47010;-71
2023/11/28 02:29:55;;;;;;;;;3.50;2.50;;;;;11.84;53.84;100676.84;146614;575;47016;-71
2023/11/28 02:33:04;;;;;;;;;3.00;3.00;;;;;10.20;54.11;100385.53;146612;675;46020;-71
2023/11/28 02:36:19;;;;;;;;;2.75;2.25;;;;;11.84;54.17;100658.66;146612;569;46016;-71
2023/11/28 02:39:15;;;;;;;;;1.75;1.75;;;;;11.84;54.98;100653.44;146611;589;46020;-71
2023/11/28 02:42:09;;;;;;;;;3.50;3.50;;;;;11.86;54.66;100651.81;146614;633;46016;-71
2023/11/28 02:45:15;;;;;;;;;4.00;4.00;;;;;11.86;54.13;100643.13;146614;665;46020;-71
2023/11/28 02:48:29;;;;;;;;;0.50;0.25;;;;;11.90;54.80;100642.44;146613;616;46015;-72
2023/11/28 02:51:33;;;;;;;;;1.50;1.00;;;;;11.93;53.68;100642.59;146614;651;46020;-72
2023/11/28 02:54:38;;;;;;;;;1.25;1.00;;;;;11.95;54.87;100651.34;146612;686;46012;-72
2023/11/28 02:57:36;;;;;;;;;1.75;1.75;;;;;11.97;54.09;100639.31;146614;677;46021;-72
2023/11/28 03:00:48;;;;;;;;;4.00;3.00;;;;;11.91;53.62;100613.06;146612;618;46016;-72
2023/11/28 03:03:53;;;;;;;;;2.25;2.00;;;;;11.98;54.77;100608.19;146609;730;47010;-73
2023/11/28 03:06:58;;;;;;;;;3.00;1.75;;;;;11.99;54.90;100619.47;146614;577;46016;-69
2023/11/28 03:09:54;;;;;;;;;3.25;3.25;;;;;11.98;55.66;100609.91;146617;572;45020;-69
2023/11/28 03:13:09;;;;;;;;;2.25;2.25;;;;;11.97;55.35;100603.81;146613;620;46918;-69
2023/11/28 03:16:13;;;;;;;;;3.25;3.00;;;;;11.98;55.95;100583.91;146614;646;46020;-70
2023/11/28 03:19:09;;;;;;;;;2.50;1.75;;;;;11.99;55.90;100581.41;146611;619;47017;-72
2023/11/28 03:22:04;;;;;;;;;2.50;2.00;;;;;12.00;56.83;100574.50;146614;598;46020;-72
2023/11/28 03:25:27;;;;;;;;;3.75;1.25;;;;;12.00;57.08;100562.37;146609;619;46016;-72
2023/11/28 03:28:36;;;;;;;;;2.25;1.50;;;;;12.00;56.28;100564.97;146615;637;46020;-72
2023/11/28 03:31:38;;;;;;;;;3.00;2.25;;;;;11.97;57.06;100551.84;146612;575;46016;-70
2023/11/28 03:34:36;;;;;;;;;1.75;1.75;;;;;11.99;55.84;100549.31;146612;610;46021;-71
2023/11/28 03:37:59;;;;;;;;;2.00;2.00;;;;;12.01;57.58;100551.16;146607;688;46014;-73
2023/11/28 03:40:54;;;;;;;;;2.00;1.75;;;;;12.05;56.72;100538.28;146614;588;46010;-71
2023/11/28 03:43:52;;;;;;;;;1.25;1.00;;;;;12.04;57.40;100529.63;146612;613;46016;-70
2023/11/28 03:46:57;;;;;;;;;1.75;0.50;;;;;11.24;55.46;100382.47;146613;689;46020;-70
2023/11/28 03:49:54;;;;;;;;;4.50;4.25;;;;;12.08;56.84;100510.72;146611;597;47014;-70
2023/11/28 03:52:58;;;;;;;;;2.75;2.75;;;;;12.07;56.63;100513.25;146614;624;46020;-69
2023/11/28 03:56:03;;;;;;;;;;;;;;;;;;;;;
2023/11/28 03:59:04;;;;;;;;;1.75;1.75;;;;;12.09;57.29;100516.81;146614;626;47014;-70
2023/11/28 04:02:28;;;;;;;;;1.50;1.50;;;;;10.68;57.40;100253.78;146609;700;47012;-69
2023/11/28 04:05:27;;;;;;;;;1.75;1.00;;;;;12.14;57.96;100487.56;146610;595;47020;-71
2023/11/28 04:08:22;;;;;;;;;1.00;1.00;;;;;12.21;58.35;100493.91;146612;626;46012;-71
2023/11/28 04:11:18;;;;;;;;;1.50;1.50;;;;;12.28;58.65;100489.88;146612;577;47010;-71
2023/11/28 04:14:20;;;;;;;;;3.75;2.00;;;;;12.31;56.09;100469.19;146610;706;46016;-72
2023/11/28 04:17:29;;;;;;;;;;;;;;;;;;;;;
2023/11/28 04:20:52;;;;;;;;;1.25;1.25;;;;;12.43;56.86;100473.19;146613;562;46012;-74
2023/11/28 04:23:58;;;;;;;;;2.50;1.25;;;;;12.46;57.54;100467.19;146614;612;47010;-74
2023/11/28 04:27:01;;;;;;;;;2.75;2.75;;;;;11.03;57.77;100204.31;146610;630;47012;-73
2023/11/28 04:30:07;;;;;;;;;0.00;0.00;;;;;12.47;58.17;100450.78;146614;699;46020;-68
2023/11/28 04:33:02;;;;;;;;;2.50;2.00;;;;;12.46;58.27;100451.56;146611;688;46012;-70
2023/11/28 04:35:57;;;;;;;;;1.00;1.00;;;;;12.48;58.38;100443.00;146613;581;47020;-75
2023/11/28 04:38:59;;;;;;;;;1.50;1.50;;;;;12.50;57.64;100439.59;146613;596;46016;-71
2023/11/28 04:41:51;;;;;;;;;3.00;1.00;;;;;12.55;57.96;100432.84;146617;644;47010;-71
2023/11/28 04:44:49;;;;;;;;;0.33;0.33;;;;;12.50;58.36;100427.50;146611;614;47022;-74
2023/11/28 04:47:48;;;;;;;;;1.75;1.75;;;;;12.59;58.44;100452.97;146614;648;46010;-75
2023/11/28 04:50:53;;;;;;;;;0.75;0.75;;;;;12.60;58.28;100449.53;146615;644;46012;-72
2023/11/28 04:53:59;;;;;;;;;1.75;1.50;;;;;12.62;57.93;100450.50;146613;570;47011;-71
2023/11/28 04:56:54;;;;;;;;;1.25;1.25;;;;;12.64;58.21;100454.00;146610;646;47010;-71
2023/11/28 04:59:52;;;;;;;;;1.00;0.00;;;;;12.65;59.10;100453.22;146616;673;46010;-71
2023/11/28 05:03:02;;;;;;;;;3.00;2.75;;;;;12.68;59.50;100448.13;146610;570;46013;-69
2023/11/28 05:06:00;;;;;;;;;0.25;0.25;;;;;12.72;59.58;100434.41;146608;632;46020;-73
2023/11/28 05:09:07;;;;;;;;;1.33;1.33;;;;;12.75;59.03;100431.91;146613;622;46016;-71
2023/11/28 05:12:09;;;;;;;;;4.50;3.00;;;;;12.77;59.59;100429.34;146614;584;46030;-72
2023/11/28 05:15:18;;;;;;;;;2.00;2.00;;;;;12.77;59.64;100412.00;146608;579;47016;-73
2023/11/28 05:18:19;;;;;;;;;1.75;1.25;;;;;12.77;59.80;100406.81;146612;644;46010;-72
2023/11/28 05:21:16;;;;;;;;;2.50;2.00;;;;;12.75;60.36;100399.81;146609;582;46917;-78
2023/11/28 05:24:17;;;;;;;;;2.25;1.50;;;;;12.76;60.80;100399.84;146614;589;45021;-72
2023/11/28 05:27:19;;;;;;;;;3.00;1.25;;;;;12.76;60.92;100378.16;146611;666;47016;-74
2023/11/28 05:30:27;;;;;;;;;1.75;1.75;;;;;11.20;60.42;100101.16;146614;597;46010;-70
2023/11/28 05:33:31;;;;;;;;;2.00;2.00;;;;;12.81;61.18;100369.69;146612;591;47012;-74
2023/11/28 05:36:32;;;;;;;;;4.50;3.00;;;;;12.83;61.30;100369.72;146617;688;46020;-74
2023/11/28 05:39:30;;;;;;;;;3.00;3.00;;;;;12.86;61.45;100364.62;146604;651;47918;-73
2023/11/28 05:42:27;;;;;;;;;3.75;1.75;;;;;12.89;60.09;100367.34;146614;613;46020;-72
2023/11/28 05:45:26;;;;;;;;;4.25;2.00;;;;;12.88;61.58;100358.66;146612;631;46016;-72
2023/11/28 05:48:28;;;;;;;;;4.25;2.50;;;;;12.93;60.85;100371.88;146611;580;48010;-73
2023/11/28 05:51:32;;;;;;;;;2.00;2.00;;;;;12.95;61.03;100351.97;146612;679;47012;-74
2023/11/28 05:54:35;;;;;;;;;1.25;1.25;;;;;13.01;61.56;100366.91;146611;633;47014;-71
2023/11/28 05:57:36;;;;;;;;;1.25;1.00;;;;;13.03;61.71;100371.34;146609;575;46918;-72
2023/11/28 06:00:56;;;;;;;;;;;;;;;;;;;;;
2023/11/28 06:04:06;;;;;;;;;3.25;3.25;;;;;13.09;61.73;100348.13;146610;633;46915;-72
2023/11/28 06:07:06;;;;;;;;;5.00;3.50;;;;;13.10;61.13;100354.22;146612;563;47029;-73
2023/11/28 06:10:04;;;;;;;;;2.00;2.00;;;;;13.09;61.79;100347.25;146612;577;47013;-73
2023/11/28 06:12:59;;;;;;;;;4.50;4.00;;;;;13.10;62.21;100368.12;146613;707;46020;-74
2023/11/28 06:16:07;;;;;;;;;4.00;2.75;;;;;13.12;62.27;100355.19;146610;676;47017;-69
2023/11/28 06:19:12;;;;;;;;;4.00;3.00;;;;;13.14;62.56;100345.69;146614;583;47029;-71
2023/11/28 06:22:17;;;;;;;;;5.75;3.75;;;;;11.80;62.93;100116.38;146612;619;46917;-71
2023/11/28 06:25:24;;;;;;;;;2.00;2.00;;;;;13.17;61.98;100328.44;146615;624;46020;-71
2023/11/28 06:28:36;;;;;;;;;3.00;3.00;;;;;13.18;61.38;100318.94;146615;583;46014;-72
2023/11/28 06:31:33;;;;;;;;;1.00;0.75;;;;;13.20;60.86;100321.59;146616;654;47010;-71
2023/11/28 06:34:46;;;;;;;;;4.75;4.00;;;;;11.62;61.06;100035.22;146608;589;46016;-71
2023/11/28 06:37:47;;;;;;;;;3.50;3.00;;;;;13.23;60.51;100309.56;146613;607;46021;-71
2023/11/28 06:40:39;;;;;;;;;2.75;1.75;;;;;13.26;60.40;100286.25;146612;613;46016;-69
2023/11/28 06:43:45;;;;;;;;;4.50;2.75;;;;;13.31;60.80;100282.09;146611;596;47010;-74
2023/11/28 06:46:48;;;;;;;;;3.00;2.00;;;;;13.32;61.04;100270.84;146612;570;47014;-76
2023/11/28 06:49:48;;;;;;;;;2.00;1.25;;;;;13.31;61.18;100245.66;146614;605;47010;-74
2023/11/28 06:52:58;;;;;;;;;1.25;1.25;;;;;13.35;61.30;100252.72;146611;611;46017;-72
2023/11/28 06:56:03;;;;;;;;;2.75;2.00;;;;;13.39;61.04;100262.41;146615;569;46031;-72
2023/11/28 06:58:57;;;;;;;;;2.50;2.50;;;;;13.42;60.98;100276.34;146610;569;47916;-70
2023/11/28 07:01:52;;;;;;;;;3.75;2.50;;;;;13.42;61.21;100269.41;146607;577;47020;-69
2023/11/28 07:04:47;;;;;;;;;3.00;1.50;;;;;13.42;61.51;100269.41;146612;662;47012;-76
2023/11/28 07:07:39;;;;;;;;;1.00;1.00;;;;;13.45;60.83;100261.69;146612;687;46010;-70
2023/11/28 07:10:35;;;;;;;;;1.25;1.25;;;;;13.49;61.40;100262.69;146615;564;47012;-73
2023/11/28 07:13:31;;;;;;;;;1.00;1.00;;;;;13.50;62.37;100244.50;146614;580;46010;-71
2023/11/28 07:16:30;;;;;;;;;1.75;1.25;;;;;13.53;62.19;100246.34;146614;690;46013;-71
2023/11/28 07:19:36;;;;;;;;;0.00;0.00;;;;;13.56;62.59;100236.00;146616;641;45020;-70
2023/11/28 07:22:34;;;;;;;;;1.25;0.50;;;;;13.60;62.72;100241.34;146611;618;47013;-72
2023/11/28 07:25:30;;;;;;;;;7.75;6.50;;;;;13.69;62.93;100226.84;146612;614;46010;-70
2023/11/28 07:28:53;;;;;;;;;5.00;4.00;;;;;12.29;63.02;99967.41;146612;701;47014;-72
2023/11/28 07:31:48;;;;;;;;;1.75;1.75;;;;;13.82;63.29;100205.53;146618;668;46010;-72
2023/11/28 07:34:52;;;;;;;;;3.25;3.25;;;;;13.86;63.50;100223.94;146609;659;47012;-71
2023/11/28 07:37:50;;;;;;;;;1.75;1.00;;;;;13.92;63.82;100223.19;146607;593;46917;-71
2023/11/28 07:40:58;;;;;;;;;2.75;2.00;;;;;13.98;64.43;100227.72;146610;625;46016;-73
2023/11/28 07:44:18;;;;;;;;;5.00;4.25;;;;;14.07;63.28;100234.06;146613;591;46021;-71
2023/11/28 07:47:27;;;;;;;;;1.00;1.00;;;;;14.11;63.96;100227.22;146613;636;46012;-71
2023/11/28 07:50:31;;;;;;;;;2.00;2.00;;;;;14.15;63.58;100217.78;146610;630;46020;-72
2023/11/28 07:53:29;;;;;;;;;4.50;3.25;;;;;14.18;64.10;100203.13;146610;617;46012;-72
2023/11/28 07:56:37;;;;;;;;;2.25;2.25;;;;;12.68;63.87;99930.50;146613;678;46020;-72
2023/11/28 07:59:39;;;;;;;;;4.50;4.50;;;;;14.24;63.60;100173.72;146613;579;46013;-74
2023/11/28 08:02:38;;;;;;;;;6.75;6.75;;;;;14.26;63.53;100180.72;146608;653;47010;-74
2023/11/28 08:05:48;;;;;;;;;4.00;2.25;;;;;14.26;63.79;100182.47;146613;635;46012;-73
2023/11/28 08:08:50;;;;;;;;;8.00;3.50;;;;;14.28;64.49;100186.88;146612;570;46028;-73
2023/11/28 08:11:55;;;;;;;;;6.75;5.00;;;;;14.33;64.26;100187.91;146612;678;47012;-71
2023/11/28 08:14:49;;;;;;;;;5.50;4.75;;;;;14.38;64.40;100184.53;146608;570;46021;-72
2023/11/28 08:17:46;;;;;;;;;4.75;3.25;;;;;14.40;65.51;100194.16;146611;632;46032;-74
2023/11/28 08:20:46;;;;;;;;;6.75;4.75;;;;;14.45;64.40;100170.78;146611;695;47020;-72
2023/11/28 08:23:53;;;;;;;;;;;;;;;;;;;;;
2023/11/28 08:26:54;;;;;;;;;5.00;4.00;;;;;14.57;63.26;100141.56;146611;650;47020;-73
2023/11/28 08:30:07;;;;;;;;;5.00;4.00;;;;;13.12;63.37;99871.91;146614;626;46016;-70
2023/11/28 08:33:15;;;;;;;;;4.25;3.00;;;;;14.65;63.88;100119.19;146616;588;47012;-73
2023/11/28 08:36:27;;;;;;;;;4.00;4.00;;;;;14.68;62.46;100122.75;146614;594;46915;-73
2023/11/28 08:39:35;;;;;;;;;12.00;10.75;;;;;14.72;61.95;100102.81;146609;569;47010;-72
2023/11/28 08:42:43;;;;;;;;;4.25;3.00;;;;;14.75;63.04;100109.00;146607;607;47016;-74
2023/11/28 08:45:53;;;;;;;;;;;;;;;;;;;;;
2023/11/28 08:48:56;;;;;;;;;5.00;3.50;;;;;14.72;62.92;100095.88;146612;622;46016;-74
2023/11/28 08:52:10;;;;;;;;;5.00;4.25;;;;;14.72;63.25;100105.44;146614;587;46021;-72
2023/11/28 08:55:35;;;;;;;;;5.75;4.50;;;;;14.68;64.36;100091.44;146607;705;45913;-73
2023/11/28 08:58:32;;;;;;;;;6.00;5.50;;;;;14.69;63.21;100080.16;146614;679;47030;-74
2023/11/28 09:01:46;;;;;;;;;6.75;3.00;;;;;14.69;62.65;100068.81;146612;583;46016;-74
2023/11/28 09:04:43;;;;;;;;;2.75;2.75;;;;;14.71;63.13;100082.81;146613;615;46010;-73
2023/11/28 09:07:49;;;;;;;;;6.25;6.25;;;;;14.69;63.26;100063.59;146608;583;46017;-73
2023/11/28 09:10:46;;;;;;;;;4.50;3.50;;;;;14.69;63.11;100061.88;146613;592;47010;-72
2023/11/28 09:13:53;;;;;;;;;;;;;;;;;;;;;
2023/11/28 09:16:48;;;;;;;;;6.50;4.00;;;;;14.72;63.57;100014.97;146613;698;46020;-73
2023/11/28 09:19:46;;;;;;;;;2.75;2.75;;;;;14.70;64.30;100001.03;146613;589;46016;-72
2023/11/28 09:22:45;;;;;;;;;2.00;2.00;;;;;14.72;64.69;100006.28;146612;667;46021;-77
2023/11/28 09:25:49;;;;;;;;;8.00;5.00;;;;;14.76;63.57;100008.09;146615;629;46016;-73
2023/11/28 09:29:07;;;;;;;;;;;;;;;;;;;;;
2023/11/28 09:32:11;;;;;;;;;3.50;3.00;;;;;14.82;65.07;100008.22;146613;617;46016;-73
2023/11/28 09:35:21;;;;;;;;;;;;;;;;;;;;;
2023/11/28 09:38:27;;;;;;;;;4.25;3.25;;;;;14.86;65.29;99983.06;146614;569;46034;-71
2023/11/28 09:41:43;;;;;;;;;;;;;;;;;;;;;
2023/11/28 09:44:42;;;;;;;;;4.00;2.67;;;;;14.98;66.87;99975.50;146610;591;46017;-72
2023/11/28 09:48:04;;;;;;;;;9.50;7.75;;;;;13.79;63.54;99778.97;146613;687;46020;-72
2023/11/28 09:51:22;;;;;;;;;9.25;9.25;;;;;15.14;64.85;99985.47;146608;579;46016;-72
2023/11/28 09:54:42;;;;;;;;;3.75;2.00;;;;;14.48;66.12;99829.16;146614;682;46020;-72
2023/11/28 09:57:49;;;;;;;;;3.75;3.25;;;;;15.24;64.17;99948.22;146609;616;46913;-73
2023/11/28 10:00:43;;;;;;;;;6.25;4.25;;;;;15.28;65.99;99922.19;146613;565;47010;-73
2023/11/28 10:04:00;;;;;;;;;1.00;1.00;;;;;15.35;65.85;99913.59;146608;618;47012;-74
2023/11/28 10:07:05;;;;;;;;;;;;;;;;;;;;;
2023/11/28 10:10:23;;;;;;;;;8.50;6.50;;;;;13.98;65.71;99656.91;146607;710;46016;-74
2023/11/28 10:13:28;;;;;;;;;;;;;;;;;;;;;
2023/11/28 10:16:51;;;;;;;;;0.00;0.00;;;;;14.74;62.60;99754.94;146607;638;46016;-71
2023/11/28 10:19:46;;;;;;;;;0.33;0.33;;;;;15.50;64.57;99871.19;146613;564;46021;-72
2023/11/28 10:23:04;;;;;;;;;0.33;0.33;;;;;15.49;64.41;99875.56;146607;571;46023;-70
2023/11/28 10:26:11;;;;;;;;;3.33;3.00;;;;;15.53;64.17;99873.88;146610;565;48921;-72
2023/11/28 10:29:15;;;;;;;;;3.00;3.00;;;;;15.55;64.72;99872.19;146612;587;47012;-71
2023/11/28 10:32:23;;;;;;;;;1.67;0.33;;;;;15.57;64.16;99860.00;146616;680;46020;-71
2023/11/28 10:35:21;;;;;;;;;1.33;1.00;;;;;15.57;65.88;99863.47;146612;635;47012;-70
2023/11/28 10:38:36;;;;;;;;;1.00;1.00;;;;;15.57;65.53;99865.22;146611;576;46020;-71
2023/11/28 10:41:55;;;;;;;;;;;;;;;;;;;;;
2023/11/28 10:45:07;;;;;;;;;5.00;3.00;;;;;15.50;67.84;99853.78;146616;635;46010;-74
2023/11/28 10:48:13;;;;;;;;;4.00;2.00;;;;;15.48;67.42;99840.72;146611;571;46012;-71
2023/11/28 10:51:16;;;;;;;;;3.00;2.67;;;;;15.50;64.96;99847.69;146614;612;46022;-72
2023/11/28 10:54:22;;;;;;;;;2.33;1.00;;;;;15.52;66.17;99835.53;146611;603;47016;-73
2023/11/28 10:57:32;;;;;;;;;2.00;0.00;;;;;15.53;66.64;99830.31;146617;570;46010;-72
2023/11/28 11:00:30;;;;;;;;;4.67;3.00;;;;;15.56;65.83;99817.31;146615;626;46014;-72
2023/11/28 11:03:51;;;;;;;;;;;;;;;;;;;;;
2023/11/28 11:06:49;;;;;;;;;6.00;4.75;;;;;15.55;69.23;99809.47;146613;688;47017;-74
2023/11/28 11:10:08;;;;;;;;;5.75;5.25;;;;;15.57;67.46;99810.34;146610;659;47010;-71
2023/11/28 11:14:01;;;;;;;;;7.00;7.00;;;;;15.58;65.53;99806.91;146609;608;48016;-71
2023/11/28 11:17:51;;;;;;;;;7.50;6.00;;;;;15.55;65.60;99797.28;146615;575;47020;-69
2023/11/28 11:20:53;;;;;;;;;0.00;0.00;;;;;15.54;67.43;99798.09;146609;577;47014;-72
2023/11/28 11:24:00;;;;;;;;;3.25;3.00;;;;;15.51;67.96;99777.16;146613;613;46010;-71
2023/11/28 11:27:08;;;;;;;;;13.25;12.75;;;;;15.48;70.48;99750.97;146607;571;47016;-71
2023/11/28 11:30:25;;;;;;;;;4.00;3.00;;;;;14.26;68.30;99539.28;146616;711;46014;-73
2023/11/28 11:33:26;;;;;;;;;2.00;1.25;;;;;15.56;68.39;99736.31;146610;582;46012;-73
2023/11/28 11:36:21;;;;;;;;;1.33;1.00;;;;;15.72;67.75;99732.22;146615;572;46021;-72
2023/11/28 11:39:29;;;;;;;;;3.00;1.00;;;;;15.94;67.75;99725.56;146611;593;46012;-72
2023/11/28 11:42:37;;;;;;;;;1.67;1.33;;;;;16.08;64.13;99723.16;146619;625;46011;-72
2023/11/28 11:46:10;;;;;;;;;4.00;2.00;;;;;14.87;62.38;99486.38;146608;645;47016;-73
2023/11/28 11:49:14;;;;;;;;;1.00;1.00;;;;;16.20;63.59;99689.31;146612;620;47010;-72
2023/11/28 11:52:15;;;;;;;;;2.67;1.67;;;;;16.21;63.04;99677.97;146613;569;46917;-72
2023/11/28 11:55:16;;;;;;;;;1.00;0.00;;;;;16.23;65.05;99667.50;146616;610;46010;-71
2023/11/28 11:58:16;;;;;;;;;1.00;1.00;;;;;16.27;63.88;99661.47;146616;597;46012;-72
2023/11/28 12:01:20;;;;;;;;;2.00;2.00;;;;;16.29;63.80;99659.72;146614;578;46020;-71
2023/11/28 12:04:43;;;;;;;;;2.00;2.00;;;;;16.38;62.49;99683.38;146615;577;46012;-71
2023/11/28 12:07:41;;;;;;;;;3.33;1.00;;;;;16.44;63.09;99628.50;146612;608;46020;-71
2023/11/28 12:10:45;;;;;;;;;5.33;5.33;;;;;16.47;63.93;99625.03;146614;571;46033;-71
2023/11/28 12:13:44;;;;;;;;;2.00;2.00;;;;;16.53;64.04;99605.03;146615;579;47021;-71
2023/11/28 12:16:50;;;;;;;;;1.00;1.00;;;;;16.59;62.90;99602.50;146613;616;47012;-71
2023/11/28 12:19:55;;;;;;;;;3.00;2.00;;;;;16.70;62.80;99612.16;146617;567;46021;-73
2023/11/28 12:22:56;;;;;;;;;1.33;1.33;;;;;16.81;62.45;99606.19;146612;576;47012;-70
2023/11/28 12:25:53;;;;;;;;;2.00;1.00;;;;;16.94;61.99;99567.88;146615;576;46020;-73
2023/11/28 12:28:59;;;;;;;;;4.33;2.33;;;;;16.98;62.55;99574.91;146610;562;46016;-68
2023/11/28 12:31:54;;;;;;;;;3.67;3.67;;;;;16.98;62.21;99588.00;146616;635;46010;-70
2023/11/28 12:34:50;;;;;;;;;1.00;0.00;;;;;17.00;62.08;99581.03;146610;628;46016;-73
2023/11/28 12:37:51;;;;;;;;;3.33;3.33;;;;;17.02;61.97;99575.81;146612;606;47010;-72
2023/11/28 12:40:52;;;;;;;;;2.00;2.00;;;;;17.18;60.77;99559.31;146610;653;46022;-71
2023/11/28 12:43:56;;;;;;;;;2.00;2.00;;;;;17.22;60.74;99549.72;146612;588;46021;-71
2023/11/28 12:47:05;;;;;;;;;1.00;0.33;;;;;17.19;60.61;99531.38;146607;647;46035;-69
2023/11/28 12:50:00;;;;;;;;;3.00;3.00;;;;;17.13;61.72;99573.25;146611;615;46021;-72
2023/11/28 12:53:02;;;;;;;;;1.00;1.00;;;;;17.13;61.48;99573.25;146610;627;47037;-69
2023/11/28 12:56:00;;;;;;;;;3.00;2.00;;;;;17.29;61.54;99564.63;146615;677;47010;-71
2023/11/28 12:59:01;;;;;;;;;3.67;3.00;;;;;17.65;61.27;99555.19;146606;590;48915;-71
2023/11/28 13:01:59;;;;;;;;;1.67;1.33;;;;;17.82;60.59;99514.22;146615;670;47010;-72
2023/11/28 13:04:54;;;;;;;;;9.25;8.25;;;;;18.04;58.95;99506.34;146605;666;47021;-70
2023/11/28 13:07:48;;;;;;;;;0.00;0.00;;;;;18.28;58.92;99516.00;146612;680;46020;-73
2023/11/28 13:10:44;;;;;;;;;0.00;0.00;;;;;18.53;58.43;99499.38;146610;608;46013;-71
2023/11/28 13:13:39;;;;;;;;;1.00;0.00;;;;;18.50;59.85;99498.53;146616;595;46020;-70
2023/11/28 13:16:32;;;;;;;;;0.00;0.00;;;;;18.55;59.10;99516.03;146611;589;48016;-75
2023/11/28 13:19:26;;;;;;;;;0.67;0.00;;;;;18.79;57.87;99509.03;146609;570;46021;-71
2023/11/28 13:22:37;;;;;;;;;;;;;;;;;;;;;
2023/11/28 13:25:41;;;;;;;;;0.00;0.00;;;;;18.74;57.70;99502.91;146613;574;46020;-69
2023/11/28 13:28:45;;;;;;;;;0.00;0.00;;;;;18.95;58.26;99520.41;146612;634;46016;-72
2023/11/28 13:32:08;;;;;;;;;0.00;0.00;;;;;19.07;57.07;99483.59;146615;571;47019;-70
2023/11/28 13:35:20;;;;;;;;;0.00;0.00;;;;;19.23;57.71;99503.69;146608;626;46016;-71
2023/11/28 13:38:31;;;;;;;;;;;;;;;;;;;;;
2023/11/28 13:41:28;;;;;;;;;0.00;0.00;;;;;19.27;56.56;99454.59;146611;606;47017;-71
2023/11/28 13:44:45;;;;;;;;;4.00;2.00;;;;;17.77;56.96;99274.72;146610;648;47010;-72
2023/11/28 13:48:07;;;;;;;;;3.67;1.33;;;;;18.57;57.71;99450.41;146610;720;46016;-73
2023/11/28 13:51:04;;;;;;;;;3.00;3.00;;;;;18.31;58.56;99488.03;146607;566;46010;-71
2023/11/28 13:54:05;;;;;;;;;0.00;0.00;;;;;18.19;58.56;99485.38;146606;574;47012;-71
2023/11/28 13:57:02;;;;;;;;;1.00;0.00;;;;;18.06;59.24;99471.41;146614;569;46020;-72
2023/11/28 14:00:01;;;;;;;;;0.00;0.00;;;;;17.88;59.75;99477.50;146607;590;46016;-70
2023/11/28 14:02:56;;;;;;;;;0.00;0.00;;;;;17.73;60.64;99488.81;146613;566;47020;-71
2023/11/28 14:06:21;;;;;;;;;0.00;0.00;;;;;17.59;60.91;99479.16;146611;596;47014;-71
2023/11/28 14:09:28;;;;;;;;;0.00;0.00;;;;;17.45;61.70;99485.22;146610;566;46015;-72
2023/11/28 14:12:22;;;;;;;;;0.00;0.00;;;;;17.36;62.02;99511.38;146611;594;46016;-71
2023/11/28 14:15:23;;;;;;;;;4.67;4.00;;;;;17.28;61.32;99452.84;146612;680;47020;-72
2023/11/28 14:18:31;;;;;;;;;3.33;2.00;;;;;17.24;61.71;99456.31;146608;571;46915;-72
2023/11/28 14:21:29;;;;;;;;;0.00;0.00;;;;;17.25;61.46;99460.69;146612;575;46010;-73
2023/11/28 14:24:30;;;;;;;;;2.00;1.00;;;;;17.30;62.16;99451.09;146612;588;46917;-72
2023/11/28 14:27:33;;;;;;;;;0.00;0.00;;;;;17.39;60.63;99434.53;146613;658;46020;-71
2023/11/28 14:30:46;;;;;;;;;1.00;1.00;;;;;17.44;59.18;99428.41;146613;618;46012;-70
2023/11/28 14:33:54;;;;;;;;;0.00;0.00;;;;;16.00;58.88;99166.16;146617;701;46021;-72
2023/11/28 14:36:41;;;;;;;;;0.00;0.00;;;;;17.46;59.41;99437.16;146713;564;47015;-72
2023/11/28 14:39:37;;;;;;;;;0.00;0.00;;;;;17.43;59.83;99429.31;146624;596;46014;-72
2023/11/28 14:42:55;;;;;;;;;0.00;0.00;;;;;17.02;60.02;99343.63;146628;588;46020;-70
2023/11/28 14:46:12;;;;;;;;;3.00;1.00;;;;;17.31;60.55;99421.41;146615;586;47017;-72